createdAt,value
2023-03-18T00:01:07.551Z,72.90
2023-03-18T00:03:37.465Z,73.03
2023-03-18T00:06:07.645Z,73.06
2023-03-18T00:08:36.037Z,72.95
2023-03-18T00:11:05.532Z,72.90
2023-03-18T00:13:34.684Z,73.11
2023-03-18T00:16:04.303Z,73.33
2023-03-18T00:18:34.996Z,73.07
2023-03-18T00:21:03.746Z,73.09
2023-03-18T00:23:32.418Z,73.73
2023-03-18T00:26:02.288Z,74.53
2023-03-18T00:28:31.468Z,74.82
2023-03-18T00:31:05.144Z,75.04
2023-03-18T00:33:34.811Z,75.20
2023-03-18T00:36:02.894Z,75.40
2023-03-18T00:38:30.767Z,75.48
2023-03-18T00:41:11.410Z,75.27
2023-03-18T00:43:46.151Z,75.58
2023-03-18T00:46:16.359Z,75.57
2023-03-18T00:48:46.288Z,75.52
2023-03-18T00:51:17.009Z,75.66
2023-03-18T00:53:46.641Z,75.76
2023-03-18T00:56:15.066Z,75.44
2023-03-18T00:58:43.412Z,75.79
2023-03-18T01:01:12.523Z,76.28
2023-03-18T01:03:42.203Z,76.37
2023-03-18T01:06:12.655Z,76.72
2023-03-18T01:08:41.261Z,76.97
2023-03-18T01:11:10.072Z,76.79
2023-03-18T01:13:39.113Z,77.12
2023-03-18T01:16:09.387Z,77.76
2023-03-18T01:18:38.221Z,78.16
2023-03-18T01:21:06.693Z,78.48
2023-03-18T01:23:41.002Z,79.04
2023-03-18T01:26:10.736Z,79.77
2023-03-18T01:28:42.320Z,80.01
2023-03-18T01:31:10.665Z,80.22
2023-03-18T01:33:40.302Z,80.64
2023-03-18T01:36:09.454Z,80.97
2023-03-18T01:38:37.673Z,81.05
2023-03-18T01:41:14.187Z,81.68
2023-03-18T01:43:44.017Z,81.52
2023-03-18T01:46:36.097Z,82.02
2023-03-18T01:49:08.595Z,82.10
2023-03-18T01:51:37.489Z,82.50
2023-03-18T01:54:07.733Z,82.61
2023-03-18T01:56:40.000Z,82.75
2023-03-18T01:59:09.738Z,82.87
2023-03-18T02:01:43.834Z,82.95
2023-03-18T02:04:12.665Z,83.14
2023-03-18T02:06:43.682Z,83.08
2023-03-18T02:09:12.399Z,83.34
2023-03-18T02:11:46.419Z,83.19
2023-03-18T02:14:19.275Z,83.48
2023-03-18T02:16:51.597Z,83.62
2023-03-18T02:19:32.196Z,83.84
2023-03-18T02:22:10.848Z,84.01
2023-03-18T02:24:48.437Z,83.97
2023-03-18T02:27:21.348Z,84.21
2023-03-18T02:29:50.441Z,83.94
2023-03-18T02:32:22.073Z,84.51
2023-03-18T02:34:50.436Z,84.68
2023-03-18T02:37:18.391Z,84.79
2023-03-18T02:39:46.283Z,85.09
2023-03-18T02:42:14.566Z,85.11
2023-03-18T02:44:51.094Z,85.64
2023-03-18T02:47:43.606Z,85.27
2023-03-18T02:50:11.819Z,85.85
2023-03-18T02:52:39.950Z,85.64
2023-03-18T02:55:09.586Z,85.22
2023-03-18T02:57:37.551Z,85.42
2023-03-18T03:00:09.303Z,85.29
2023-03-18T03:02:37.652Z,85.07
2023-03-18T03:05:06.450Z,85.46
2023-03-18T03:07:34.520Z,85.45
2023-03-18T03:10:04.101Z,85.24
2023-03-18T03:12:32.068Z,85.13
2023-03-18T03:15:01.027Z,85.17
2023-03-18T03:17:33.623Z,84.83
2023-03-18T03:20:01.748Z,84.61
2023-03-18T03:22:30.168Z,84.32
2023-03-18T03:24:58.247Z,83.99
2023-03-18T03:27:26.160Z,83.88
2023-03-18T03:29:55.418Z,83.79
2023-03-18T03:32:24.069Z,83.77
2023-03-18T03:34:53.314Z,83.68
2023-03-18T03:37:21.245Z,83.64
2023-03-18T03:39:49.345Z,83.54
2023-03-18T03:42:17.217Z,83.31
2023-03-18T03:44:46.261Z,83.34
2023-03-18T03:47:14.301Z,83.24
2023-03-18T03:49:42.671Z,83.18
2023-03-18T03:52:12.909Z,83.03
2023-03-18T03:54:42.541Z,82.88
2023-03-18T03:57:10.849Z,82.84
2023-03-18T03:59:39.011Z,82.89
2023-03-18T04:02:16.658Z,82.91
2023-03-18T04:04:45.271Z,82.85
2023-03-18T04:07:24.141Z,82.84
2023-03-18T04:09:52.001Z,82.95
2023-03-18T04:12:21.137Z,82.96
2023-03-18T04:14:56.347Z,83.02
2023-03-18T04:17:24.646Z,82.99
2023-03-18T04:19:52.579Z,83.16
2023-03-18T04:22:21.515Z,83.13
2023-03-18T04:24:52.345Z,83.23
2023-03-18T04:27:20.667Z,83.26
2023-03-18T04:29:49.687Z,83.26
2023-03-18T04:32:18.364Z,83.53
2023-03-18T04:34:46.682Z,83.65
2023-03-18T04:37:19.782Z,83.64
2023-03-18T04:39:51.033Z,83.61
2023-03-18T04:42:18.971Z,83.66
2023-03-18T04:44:47.127Z,83.66
2023-03-18T04:47:16.075Z,83.67
2023-03-18T04:49:45.018Z,83.59
2023-03-18T04:52:15.054Z,83.55
2023-03-18T04:54:43.523Z,83.75
2023-03-18T04:57:13.110Z,83.81
2023-03-18T04:59:48.924Z,84.14
2023-03-18T05:02:16.802Z,84.24
2023-03-18T05:04:45.424Z,84.25
2023-03-18T05:07:15.402Z,84.37
2023-03-18T05:09:49.298Z,84.57
2023-03-18T05:12:19.241Z,84.52
2023-03-18T05:14:47.063Z,84.63
2023-03-18T05:17:16.538Z,84.67
2023-03-18T05:19:54.002Z,84.61
2023-03-18T05:22:24.071Z,84.66
2023-03-18T05:24:59.400Z,84.67
2023-03-18T05:27:30.479Z,84.72
2023-03-18T05:30:15.461Z,84.60
2023-03-18T05:32:50.693Z,84.62
2023-03-18T05:35:20.584Z,84.68
2023-03-18T05:37:51.037Z,84.67
2023-03-18T05:40:19.468Z,84.71
2023-03-18T05:43:05.727Z,84.61
2023-03-18T05:45:40.434Z,85.10
2023-03-18T05:48:11.669Z,84.95
2023-03-18T05:50:48.693Z,85.86
2023-03-18T05:53:20.692Z,85.42
2023-03-18T05:55:54.457Z,85.23
2023-03-18T05:58:24.028Z,84.75
2023-03-18T06:00:58.759Z,83.81
2023-03-18T06:03:27.644Z,84.32
2023-03-18T06:05:55.583Z,83.86
2023-03-18T06:08:23.635Z,84.44
2023-03-18T06:10:51.551Z,84.40
2023-03-18T06:13:19.819Z,84.40
2023-03-18T06:15:49.055Z,84.31
2023-03-18T06:18:17.165Z,84.40
2023-03-18T06:20:45.066Z,83.72
2023-03-18T06:23:13.484Z,83.28
2023-03-18T06:25:42.265Z,83.30
2023-03-18T06:28:10.258Z,81.23
2023-03-18T06:30:38.382Z,78.73
2023-03-18T06:33:08.506Z,75.75
2023-03-18T06:35:39.665Z,73.69
2023-03-18T06:38:08.755Z,72.17
2023-03-18T06:40:38.832Z,69.63
2023-03-18T06:43:08.020Z,67.97
2023-03-18T06:45:40.224Z,66.65
2023-03-18T06:48:11.843Z,65.53
2023-03-18T06:50:43.167Z,65.15
2023-03-18T06:53:25.293Z,63.73
2023-03-18T06:55:54.038Z,62.67
2023-03-18T06:58:25.878Z,60.91
2023-03-18T07:01:01.573Z,60.44
2023-03-18T07:03:36.656Z,59.70
2023-03-18T07:06:05.513Z,60.74
2023-03-18T07:08:34.221Z,59.95
2023-03-18T07:11:03.704Z,58.93
2023-03-18T07:13:32.652Z,57.54
2023-03-18T07:16:00.581Z,57.17
2023-03-18T07:18:29.151Z,58.02
2023-03-18T07:22:12.298Z,58.39
2023-03-18T07:24:41.616Z,57.49
2023-03-18T07:27:09.550Z,57.22
2023-03-18T07:29:37.981Z,57.80
2023-03-18T07:32:06.837Z,58.34
2023-03-18T07:34:35.213Z,57.39
2023-03-18T07:37:04.053Z,58.71
2023-03-18T07:39:31.925Z,60.49
2023-03-18T07:42:02.138Z,60.01
2023-03-18T07:44:31.642Z,59.41
2023-03-18T07:46:59.510Z,58.29
2023-03-18T07:49:27.937Z,57.94
2023-03-18T07:51:55.917Z,56.83
2023-03-18T07:54:24.025Z,58.26
2023-03-18T07:56:53.484Z,59.35
2023-03-18T07:59:22.810Z,61.11
2023-03-18T08:01:50.741Z,62.39
2023-03-18T08:04:19.311Z,64.07
2023-03-18T08:06:47.507Z,64.38
2023-03-18T08:09:15.871Z,63.71
2023-03-18T08:11:43.791Z,63.04
2023-03-18T08:14:11.792Z,61.65
2023-03-18T08:16:41.078Z,61.25
2023-03-18T08:19:09.037Z,59.84
2023-03-18T08:21:36.981Z,58.42
2023-03-18T08:24:05.427Z,56.30
2023-03-18T08:26:33.471Z,56.01
2023-03-18T08:29:01.377Z,54.62
2023-03-18T08:31:29.292Z,53.57
2023-03-18T08:34:00.608Z,53.92
2023-03-18T08:36:28.727Z,53.60
2023-03-18T08:38:56.616Z,53.52
2023-03-18T08:41:25.728Z,53.95
2023-03-18T08:43:55.468Z,53.66
2023-03-18T08:46:23.416Z,51.58
2023-03-18T08:48:51.441Z,50.26
2023-03-18T08:51:22.136Z,48.99
2023-03-18T08:53:50.138Z,49.24
2023-03-18T08:56:18.040Z,50.72
2023-03-18T08:58:46.065Z,52.69
2023-03-18T09:01:14.003Z,52.69
2023-03-18T09:03:41.982Z,53.09
2023-03-18T09:06:09.932Z,52.04
2023-03-18T09:08:39.578Z,52.25
2023-03-18T09:11:07.863Z,51.39
2023-03-18T09:13:38.039Z,49.46
2023-03-18T09:16:08.242Z,49.07
2023-03-18T09:18:37.178Z,46.49
2023-03-18T09:21:05.970Z,45.08
2023-03-18T09:23:34.377Z,42.90
2023-03-18T09:26:03.681Z,43.16
2023-03-18T09:28:31.530Z,43.09
2023-03-18T09:30:59.434Z,43.98
2023-03-18T09:33:27.376Z,44.23
2023-03-18T09:35:55.532Z,44.20
2023-03-18T09:38:23.745Z,44.97
2023-03-18T09:41:02.505Z,44.36
2023-03-18T09:43:37.668Z,44.34
2023-03-18T09:46:14.813Z,42.80
2023-03-18T09:49:24.584Z,44.65
2023-03-18T09:52:00.726Z,46.53
2023-03-18T09:54:36.502Z,48.87
2023-03-18T09:57:05.351Z,48.93
2023-03-18T09:59:40.147Z,46.35
2023-03-18T10:02:20.249Z,45.28
2023-03-18T10:04:52.891Z,44.79
2023-03-18T10:07:27.308Z,45.30
2023-03-18T10:09:57.660Z,46.00
2023-03-18T10:12:32.452Z,45.20
2023-03-18T10:15:11.598Z,44.44
2023-03-18T10:17:42.335Z,43.83
2023-03-18T10:20:19.153Z,44.02
2023-03-18T10:22:57.621Z,43.89
2023-03-18T10:25:29.683Z,45.14
2023-03-18T10:28:13.294Z,45.98
2023-03-18T10:30:54.834Z,46.93
2023-03-18T10:33:33.323Z,47.60
2023-03-18T10:36:06.621Z,48.46
2023-03-18T10:38:38.582Z,48.29
2023-03-18T10:41:17.306Z,49.12
2023-03-18T10:43:46.864Z,49.70
2023-03-18T10:46:19.731Z,51.63
2023-03-18T10:48:51.038Z,52.54
2023-03-18T10:51:24.657Z,54.37
2023-03-18T10:53:58.924Z,54.95
2023-03-18T10:56:27.393Z,54.99
2023-03-18T10:58:56.360Z,56.50
2023-03-18T11:01:29.974Z,56.31
2023-03-18T11:04:03.367Z,55.32
2023-03-18T11:06:41.476Z,56.45
2023-03-18T11:09:12.371Z,56.08
2023-03-18T11:11:43.357Z,56.66
2023-03-18T11:14:17.876Z,57.38
2023-03-18T11:16:57.627Z,56.59
2023-03-18T11:19:32.304Z,56.93
2023-03-18T11:22:18.815Z,57.06
2023-03-18T11:24:47.041Z,57.81
2023-03-18T11:27:27.810Z,57.46
2023-03-18T11:29:58.985Z,56.77
2023-03-18T11:32:31.278Z,56.68
2023-03-18T11:35:01.620Z,56.86
2023-03-18T11:37:32.858Z,56.83
2023-03-18T11:40:28.199Z,57.91
2023-03-18T11:42:58.553Z,58.49
2023-03-18T11:45:39.491Z,59.52
2023-03-18T11:48:16.134Z,58.96
2023-03-18T11:50:53.346Z,59.51
2023-03-18T11:53:28.512Z,59.44
2023-03-18T11:56:00.728Z,59.75
2023-03-18T11:59:02.777Z,59.83
2023-03-18T12:01:39.757Z,60.83
2023-03-18T12:04:45.009Z,61.54
2023-03-18T12:07:30.536Z,62.07
2023-03-18T12:10:08.689Z,62.61
2023-03-18T12:12:49.768Z,62.92
2023-03-18T12:15:25.884Z,64.03
2023-03-18T12:18:02.391Z,63.92
2023-03-18T12:20:43.571Z,64.26
2023-03-18T12:23:33.603Z,65.27
2023-03-18T12:26:08.435Z,65.71
2023-03-18T12:28:48.229Z,67.57
2023-03-18T12:31:49.565Z,68.11
2023-03-18T12:34:36.153Z,69.15
2023-03-18T12:37:17.758Z,68.78
2023-03-18T12:39:58.392Z,69.12
2023-03-18T12:42:37.357Z,68.64
2023-03-18T12:45:11.380Z,67.65
2023-03-18T12:47:45.432Z,67.72
2023-03-18T12:50:18.292Z,66.87
2023-03-18T12:52:51.589Z,67.67
2023-03-18T12:55:25.180Z,67.27
2023-03-18T12:57:57.654Z,67.52
2023-03-18T13:00:31.216Z,67.77
2023-03-18T13:03:06.885Z,67.74
2023-03-18T13:05:45.452Z,67.85
2023-03-18T13:08:42.627Z,66.40
2023-03-18T13:11:25.814Z,62.63
2023-03-18T13:14:01.057Z,61.56
2023-03-18T13:16:31.233Z,60.06
2023-03-18T13:19:00.714Z,59.62
2023-03-18T13:21:31.772Z,59.63
2023-03-18T13:24:29.231Z,58.57
2023-03-18T13:27:30.001Z,58.07
2023-03-18T13:30:06.211Z,55.93
2023-03-18T13:32:51.627Z,55.62
2023-03-18T13:35:50.700Z,56.69
2023-03-18T13:38:39.436Z,56.57
2023-03-18T13:41:18.731Z,56.06
2023-03-18T13:43:51.189Z,56.37
2023-03-18T13:46:22.232Z,56.22
2023-03-18T13:48:56.147Z,57.46
2023-03-18T13:51:49.328Z,57.57
2023-03-18T13:54:19.527Z,57.26
2023-03-18T13:56:52.709Z,56.98
2023-03-18T13:59:48.489Z,59.12
2023-03-18T14:02:43.640Z,58.75
2023-03-18T14:05:36.946Z,58.71
2023-03-18T14:08:07.212Z,59.03
2023-03-18T14:10:35.499Z,58.25
2023-03-18T14:13:26.578Z,58.61
2023-03-18T14:15:57.390Z,58.17
2023-03-18T14:18:28.604Z,58.82
2023-03-18T14:21:01.381Z,59.69
2023-03-18T14:23:43.107Z,59.09
2023-03-18T14:26:24.233Z,59.62
2023-03-18T14:28:57.070Z,59.63
2023-03-18T14:31:34.648Z,58.34
2023-03-18T14:34:24.763Z,57.26
2023-03-18T14:37:29.461Z,55.92
2023-03-18T14:40:05.274Z,54.95
2023-03-18T14:42:46.808Z,57.04
2023-03-18T14:45:20.573Z,57.87
2023-03-18T14:47:53.070Z,58.80
2023-03-18T14:50:30.697Z,59.10
2023-03-18T14:53:05.429Z,58.73
2023-03-18T14:55:35.914Z,58.91
2023-03-18T14:58:04.927Z,58.51
2023-03-18T15:00:36.105Z,57.78
2023-03-18T15:03:09.356Z,58.01
2023-03-18T15:05:41.943Z,58.20
2023-03-18T15:08:15.014Z,59.10
2023-03-18T15:10:44.582Z,58.90
2023-03-18T15:13:15.347Z,58.74
2023-03-18T15:15:43.800Z,59.70
2023-03-18T15:18:26.822Z,59.73
2023-03-18T15:20:57.177Z,59.79
2023-03-18T15:23:38.088Z,59.25
2023-03-18T15:26:09.915Z,59.74
2023-03-18T15:28:38.593Z,60.44
2023-03-18T15:31:06.636Z,60.75
2023-03-18T15:33:39.880Z,60.19
2023-03-18T15:36:15.282Z,60.66
2023-03-18T15:38:48.948Z,61.25
2023-03-18T15:41:17.860Z,61.16
2023-03-18T15:43:48.226Z,60.97
2023-03-18T15:46:19.107Z,61.00
2023-03-18T15:48:55.109Z,60.90
2023-03-18T15:51:38.683Z,60.48
2023-03-18T15:54:09.398Z,61.29
2023-03-18T15:56:47.254Z,61.15
2023-03-18T15:59:18.980Z,61.83
2023-03-18T16:01:48.350Z,61.20
2023-03-18T16:04:19.126Z,61.42
2023-03-18T16:06:47.875Z,61.05
2023-03-18T16:09:18.290Z,60.81
2023-03-18T16:11:49.202Z,59.93
2023-03-18T16:14:18.689Z,60.37
2023-03-18T16:16:46.824Z,59.93
2023-03-18T16:19:25.054Z,60.15
2023-03-18T16:21:53.273Z,60.50
2023-03-18T16:24:21.893Z,60.23
2023-03-18T16:26:50.313Z,60.93
2023-03-18T16:29:23.111Z,60.29
2023-03-18T16:31:51.183Z,60.56
2023-03-18T16:34:21.834Z,61.21
2023-03-18T16:36:52.012Z,61.29
2023-03-18T16:39:21.288Z,60.82
2023-03-18T16:41:49.681Z,60.72
2023-03-18T16:44:19.344Z,60.81
2023-03-18T16:46:49.921Z,61.19
2023-03-18T16:49:22.267Z,61.17
2023-03-18T16:51:50.621Z,61.67
2023-03-18T16:54:21.276Z,61.19
2023-03-18T16:56:51.265Z,61.78
2023-03-18T16:59:20.139Z,61.46
2023-03-18T17:01:48.582Z,61.67
2023-03-18T17:04:29.205Z,62.26
2023-03-18T17:06:57.683Z,62.60
2023-03-18T17:09:26.323Z,62.87
2023-03-18T17:11:57.655Z,62.67
2023-03-18T17:14:30.927Z,62.85
2023-03-18T17:17:01.943Z,62.69
2023-03-18T17:19:31.374Z,62.95
2023-03-18T17:21:59.076Z,63.01
2023-03-18T17:24:27.218Z,63.26
2023-03-18T17:26:55.504Z,63.60
2023-03-18T17:29:26.059Z,63.75
2023-03-18T17:31:54.754Z,64.06
2023-03-18T17:34:23.932Z,64.81
2023-03-18T17:36:52.975Z,64.91
2023-03-18T17:39:20.942Z,65.20
2023-03-18T17:41:49.032Z,65.45
2023-03-18T17:44:26.630Z,65.66
2023-03-18T17:46:57.198Z,65.88
2023-03-18T17:49:28.946Z,65.79
2023-03-18T17:51:58.193Z,66.05
2023-03-18T17:54:27.135Z,66.00
2023-03-18T17:56:56.054Z,65.95
2023-03-18T17:59:24.069Z,66.03
2023-03-18T18:01:52.459Z,66.20
2023-03-18T18:04:23.096Z,66.21
2023-03-18T18:06:50.978Z,66.51
2023-03-18T18:09:21.480Z,66.56
2023-03-18T18:11:50.846Z,66.92
2023-03-18T18:14:21.515Z,67.09
2023-03-18T18:16:50.354Z,66.83
2023-03-18T18:19:19.465Z,66.72
2023-03-18T18:21:48.320Z,66.99
2023-03-18T18:24:25.206Z,66.87
2023-03-18T18:26:53.375Z,67.10
2023-03-18T18:29:23.396Z,67.07
2023-03-18T18:31:52.230Z,67.38
2023-03-18T18:34:21.220Z,67.71
2023-03-18T18:36:49.767Z,67.34
2023-03-18T18:39:17.975Z,67.45
2023-03-18T18:41:47.741Z,67.77
2023-03-18T18:44:15.767Z,67.80
2023-03-18T18:46:43.818Z,68.03
2023-03-18T18:49:21.909Z,68.09
2023-03-18T18:51:50.633Z,68.33
2023-03-18T18:54:18.473Z,68.37
2023-03-18T18:56:48.033Z,68.50
2023-03-18T18:59:26.620Z,68.68
2023-03-18T19:01:55.364Z,68.78
2023-03-18T19:04:23.672Z,69.12
2023-03-18T19:06:52.722Z,69.25
2023-03-18T19:09:22.112Z,69.41
2023-03-18T19:11:51.591Z,69.49
2023-03-18T19:14:21.890Z,69.66
2023-03-18T19:16:49.977Z,69.65
2023-03-18T19:19:20.534Z,69.72
2023-03-18T19:21:49.648Z,69.90
2023-03-18T19:24:29.365Z,69.79
2023-03-18T19:27:01.395Z,69.86
2023-03-18T19:29:29.788Z,69.91
2023-03-18T19:31:57.796Z,70.00
2023-03-18T19:34:26.778Z,69.88
2023-03-18T19:36:57.265Z,69.98
2023-03-18T19:39:27.709Z,70.07
2023-03-18T19:41:55.689Z,70.19
2023-03-18T19:44:26.448Z,70.27
2023-03-18T19:46:56.244Z,70.46
2023-03-18T19:49:26.634Z,70.46
2023-03-18T19:51:56.038Z,70.42
2023-03-18T19:54:28.255Z,70.41
2023-03-18T19:56:57.311Z,70.36
2023-03-18T19:59:33.683Z,70.70
2023-03-18T20:02:08.118Z,70.95
2023-03-18T20:04:36.183Z,70.70
2023-03-18T20:07:06.357Z,70.69
2023-03-18T20:09:34.229Z,71.78
2023-03-18T20:12:05.672Z,72.62
2023-03-18T20:14:38.025Z,72.44
2023-03-18T20:17:37.270Z,72.94
2023-03-18T20:20:05.410Z,73.39
2023-03-18T20:22:36.134Z,73.74
2023-03-18T20:25:06.252Z,74.42
2023-03-18T20:27:34.241Z,74.86
2023-03-18T20:30:03.497Z,75.46
2023-03-18T20:32:31.235Z,75.64
2023-03-18T20:34:59.730Z,75.77
2023-03-18T20:37:33.443Z,76.68
2023-03-18T20:40:02.723Z,77.00
2023-03-18T20:42:30.497Z,76.94
2023-03-18T20:44:58.399Z,77.33
2023-03-18T20:47:27.629Z,77.59
2023-03-18T20:49:55.485Z,77.89
2023-03-18T20:52:29.352Z,77.92
2023-03-18T20:54:57.938Z,78.02
2023-03-18T20:57:26.315Z,78.05
2023-03-18T20:59:54.270Z,78.33
2023-03-18T21:02:31.408Z,78.33
2023-03-18T21:05:00.834Z,78.71
2023-03-18T21:07:29.955Z,78.61
2023-03-18T21:09:57.894Z,78.57
2023-03-18T21:12:26.207Z,78.47
2023-03-18T21:14:54.117Z,78.58
2023-03-18T21:17:24.300Z,79.24
2023-03-18T21:20:00.699Z,79.06
2023-03-18T21:22:33.362Z,78.96
2023-03-18T21:25:01.253Z,78.95
2023-03-18T21:27:29.848Z,79.18
2023-03-18T21:29:58.236Z,79.48
2023-03-18T21:32:28.279Z,79.89
2023-03-18T21:34:57.566Z,79.30
2023-03-18T21:37:26.523Z,79.00
2023-03-18T21:39:54.983Z,79.45
2023-03-18T21:42:25.564Z,80.70
2023-03-18T21:44:53.978Z,81.54
2023-03-18T21:47:24.684Z,82.73
2023-03-18T21:49:53.050Z,83.22
2023-03-18T21:52:28.392Z,83.54
2023-03-18T21:54:56.640Z,83.88
2023-03-18T21:57:24.949Z,84.08
2023-03-18T21:59:54.487Z,84.41
2023-03-18T22:02:28.872Z,84.55
2023-03-18T22:04:58.677Z,84.85
2023-03-18T22:07:29.479Z,85.27
2023-03-18T22:09:58.053Z,85.56
2023-03-18T22:12:27.680Z,85.65
2023-03-18T22:14:56.318Z,85.59
2023-03-18T22:17:26.289Z,85.72
2023-03-18T22:19:55.518Z,85.55
2023-03-18T22:22:24.948Z,85.34
2023-03-18T22:24:54.351Z,85.49
2023-03-18T22:27:23.184Z,85.47
2023-03-18T22:29:51.969Z,85.79
2023-03-18T22:32:36.921Z,85.88
2023-03-18T22:35:06.705Z,86.08
2023-03-18T22:37:34.540Z,86.25
2023-03-18T22:40:04.376Z,86.16
2023-03-18T22:42:32.388Z,86.23
2023-03-18T22:45:00.389Z,86.32
2023-03-18T22:47:28.297Z,86.28
2023-03-18T22:49:56.199Z,85.98
2023-03-18T22:52:26.821Z,85.70
2023-03-18T22:54:57.251Z,85.65
2023-03-18T22:57:27.482Z,85.76
2023-03-18T22:59:56.705Z,85.19
2023-03-18T23:02:27.313Z,85.28
2023-03-18T23:04:56.404Z,85.26
2023-03-18T23:07:28.034Z,85.11
2023-03-18T23:09:57.874Z,85.18
2023-03-18T23:12:30.306Z,85.68
2023-03-18T23:14:58.858Z,85.67
2023-03-18T23:17:28.778Z,85.89
2023-03-18T23:19:56.740Z,85.80
2023-03-18T23:22:27.365Z,85.73
2023-03-18T23:24:55.724Z,85.61
2023-03-18T23:27:25.328Z,85.73
2023-03-18T23:29:54.892Z,85.45
2023-03-18T23:32:23.962Z,85.79
2023-03-18T23:34:52.788Z,86.06
2023-03-18T23:37:20.799Z,86.27
2023-03-18T23:39:48.723Z,86.35
2023-03-18T23:42:18.313Z,86.74
2023-03-18T23:44:46.653Z,87.32
2023-03-18T23:47:16.918Z,87.05
2023-03-18T23:49:44.809Z,86.77
2023-03-18T23:52:14.914Z,86.60
2023-03-18T23:54:42.816Z,86.48
2023-03-18T23:57:12.166Z,86.65
2023-03-18T23:59:40.083Z,86.70
